Sheridan Lake, Colorado
Current Conditions -  °F | °C
As of 5:53 AM on Sunday 21 Dec 2014 (Local Time) from KLAA Reporting Station
Clear Clear  
Wind Chill: 17°   Ceiling: Unl
Heat Index: 25°   Visibility: 10mi
Dew Point: 23°   Wind: 7mph
Humidity: 92%   Direction: 260°W
Pressure: 29.8"   Gusts: NA
Location:  38.47°N, 102.29°W
Report Text: KLAA 211253Z AUTO 26006KT 10SM CLR M04/M05 A2980 RMK AO2 SLP108 T10391050
Loading
Personal Weather Stations






























Interactive Weather Map New forecast layout! Learn more

10-Day Weather Forecast

Advertisements
Track Severe Weather on mobile